Time;durP1;ratioP1;P1;durP2;ratioP2;P2;SDS_P1;SDS_P2;PMS_P1;PMS_P2;Temp;Humidity;BMP_temperature;BMP_pressure;BME280_temperature;BME280_humidity;BME280_pressure;Samples;Min_cycle;Max_cycle;Signal;HPM_P1;HPM_P2
2022/11/17 00:02:00;;;;;;;;;7.00;3.33;;;;;13.98;69.71;98152.50;5069306;28;45113;-65
2022/11/17 00:04:32;;;;;;;;;6.67;2.00;;;;;13.98;69.49;98133.72;5073666;28;45137;-69
2022/11/17 00:06:59;;;;;;;;;9.67;3.00;;;;;13.98;69.34;98148.00;5071015;28;45467;-73
2022/11/17 00:09:28;;;;;;;;;5.67;2.00;;;;;13.98;69.01;98145.31;5069012;28;45413;-69
2022/11/17 00:14:59;;;;;;;;;5.33;2.67;;;;;13.98;68.93;98147.13;5068383;28;45163;-77
2022/11/17 00:17:28;;;;;;;;;6.33;4.67;;;;;13.99;68.57;98133.66;5051143;28;45744;-76
2022/11/17 00:23:10;;;;;;;;;3.67;3.00;;;;;13.99;68.30;98154.25;5072975;28;45077;-78
2022/11/17 00:25:39;;;;;;;;;7.67;4.00;;;;;13.98;67.89;98150.69;5074818;28;45484;-78
2022/11/17 00:28:13;;;;;;;;;8.33;4.00;;;;;13.99;68.07;98159.63;5073252;28;46304;-78
2022/11/17 00:36:23;;;;;;;;;13.00;3.67;;;;;13.77;69.02;98113.75;5066879;28;45303;-78
2022/11/17 00:38:57;;;;;;;;;5.67;3.33;;;;;14.01;68.39;98152.41;5061465;28;46223;-79
2022/11/17 00:41:29;;;;;;;;;2.00;2.00;;;;;14.00;68.11;98154.19;5067537;28;45157;-76
2022/11/17 00:44:05;;;;;;;;;4.67;3.00;;;;;13.98;68.19;98161.44;5074297;28;44868;-76
2022/11/17 00:46:42;;;;;;;;;6.67;4.33;;;;;13.93;68.18;98159.81;5074169;28;44980;-71
2022/11/17 00:49:15;;;;;;;;;7.00;3.00;;;;;13.97;68.26;98154.31;5052215;28;45420;-78
2022/11/17 00:51:49;;;;;;;;;6.33;2.00;;;;;13.97;68.48;98170.44;5068306;28;45129;-78
2022/11/17 00:54:21;;;;;;;;;4.67;2.00;;;;;13.77;68.08;98135.22;5066096;28;44934;-70
2022/11/17 00:56:58;;;;;;;;;12.67;2.67;;;;;13.92;68.24;98158.91;5073091;28;45056;-79
2022/11/17 00:59:24;;;;;;;;;8.00;4.00;;;;;13.93;67.63;98149.94;5054711;28;45718;-80
2022/11/17 01:02:02;;;;;;;;;7.67;2.00;;;;;13.79;67.49;98130.66;5054923;28;45434;-79
2022/11/17 01:04:33;;;;;;;;;9.67;3.00;;;;;13.86;67.22;98134.06;5077552;28;44891;-80
2022/11/17 01:07:03;;;;;;;;;2.67;1.67;;;;;13.87;66.55;98135.81;5074604;28;45319;-81
2022/11/17 01:09:49;;;;;;;;;10.00;2.00;;;;;13.92;66.21;98164.28;5074168;28;45068;-76
2022/11/17 01:12:16;;;;;;;;;3.33;2.00;;;;;13.91;66.66;98145.53;5073565;27;45353;-81
2022/11/17 01:14:50;;;;;;;;;11.67;3.00;;;;;13.98;65.92;98173.97;5066690;28;45132;-71
2022/11/17 01:17:21;;;;;;;;;2.00;1.00;;;;;13.86;65.23;98140.31;5067783;28;45413;-72
2022/11/17 01:20:01;;;;;;;;;1.00;1.00;;;;;13.97;64.99;98161.47;5070726;28;45218;-77
2022/11/17 01:22:33;;;;;;;;;4.33;2.67;;;;;13.99;65.24;98175.72;5053223;28;45032;-77
2022/11/17 01:25:13;;;;;;;;;1.67;1.00;;;;;13.96;64.97;98179.38;5070548;28;45117;-72
2022/11/17 01:27:45;;;;;;;;;5.67;2.33;;;;;13.95;64.97;98177.63;5071620;28;45547;-79
2022/11/17 01:30:11;;;;;;;;;1.67;1.00;;;;;13.99;64.43;98183.78;5045867;28;46809;-72
2022/11/17 01:32:52;;;;;;;;;1.00;1.00;;;;;13.96;64.54;98191.94;5072211;28;45025;-75
2022/11/17 01:35:21;;;;;;;;;3.00;1.33;;;;;14.01;64.62;98204.28;5067344;28;45070;-74
2022/11/17 01:37:49;;;;;;;;;2.00;0.00;;;;;14.01;64.00;98206.97;5064974;28;45123;-76
2022/11/17 01:40:24;;;;;;;;;0.00;0.00;;;;;14.03;64.30;98214.13;5073988;28;45178;-72
2022/11/17 01:43:01;;;;;;;;;2.00;1.00;;;;;14.00;64.02;98225.81;5073456;28;45150;-81
2022/11/17 01:45:39;;;;;;;;;5.33;1.00;;;;;14.05;63.76;98233.75;5054090;28;45091;-74
2022/11/17 01:48:26;;;;;;;;;5.00;2.00;;;;;14.06;63.66;98222.97;5066995;28;44895;-79
2022/11/17 01:50:55;;;;;;;;;3.67;0.67;;;;;13.76;63.35;98174.59;5073437;28;45577;-80
2022/11/17 01:53:46;;;;;;;;;3.00;1.00;;;;;14.04;63.18;98232.88;5066406;28;45414;-74
2022/11/17 01:59:39;;;;;;;;;1.00;1.00;;;;;14.02;63.60;98232.00;5049230;28;45176;-74
2022/11/17 02:02:14;;;;;;;;;1.00;0.00;;;;;14.01;63.88;98241.00;5053747;28;45484;-81
2022/11/17 02:05:09;;;;;;;;;1.67;1.67;;;;;14.00;63.20;98256.22;5069745;28;45159;-74
2022/11/17 02:07:40;;;;;;;;;6.00;1.00;;;;;14.00;63.44;98239.22;5018925;28;45189;-81
2022/11/17 02:10:21;;;;;;;;;3.67;1.00;;;;;13.99;63.81;98246.41;5074206;28;45507;-81
2022/11/17 02:12:48;;;;;;;;;1.33;1.00;;;;;13.98;63.23;98249.16;5055135;28;47397;-81
2022/11/17 02:15:22;;;;;;;;;3.00;1.00;;;;;13.98;63.51;98252.69;5072694;28;45021;-77
2022/11/17 02:18:02;;;;;;;;;6.00;2.00;;;;;13.97;63.30;98255.44;5053813;28;44993;-74
2022/11/17 02:20:40;;;;;;;;;0.67;0.00;;;;;13.96;63.46;98261.72;5072324;28;45243;-80
2022/11/17 02:23:39;;;;;;;;;0.00;0.00;;;;;13.97;63.33;98268.84;5066920;28;45136;-77
2022/11/17 02:26:42;;;;;;;;;0.67;0.67;;;;;13.97;63.28;98252.75;5060192;28;44963;-81
2022/11/17 02:29:37;;;;;;;;;1.00;0.00;;;;;13.96;63.57;98251.88;5050305;28;45265;-78
2022/11/17 02:32:30;;;;;;;;;2.00;0.67;;;;;13.95;63.41;98260.84;5070564;28;45248;-74
2022/11/17 02:35:20;;;;;;;;;2.00;0.00;;;;;13.91;63.80;98253.81;5071044;28;45275;-81
2022/11/17 02:38:14;;;;;;;;;4.00;1.00;;;;;13.91;63.59;98266.31;5067302;28;45016;-82
2022/11/17 02:40:58;;;;;;;;;0.33;0.00;;;;;13.73;63.39;98248.94;5070299;28;45120;-79
2022/11/17 02:44:07;;;;;;;;;1.67;1.00;;;;;13.83;63.63;98262.06;5078500;28;45008;-71
2022/11/17 02:46:50;;;;;;;;;6.00;1.00;;;;;13.89;63.29;98284.28;4997071;28;45610;-72
2022/11/17 02:49:31;;;;;;;;;1.33;1.33;;;;;13.88;63.17;98286.09;5010974;28;45432;-70
2022/11/17 02:52:02;;;;;;;;;2.00;0.00;;;;;13.86;62.53;98297.78;5046408;28;45186;-71
2022/11/17 02:54:48;;;;;;;;;0.00;0.00;;;;;13.85;62.52;98304.94;5074144;28;45312;-66
2022/11/17 02:58:01;;;;;;;;;3.00;0.00;;;;;13.85;62.70;98286.16;5074701;28;45708;-76
2022/11/17 03:00:32;;;;;;;;;4.00;0.00;;;;;13.86;62.01;98293.31;5072614;28;45057;-79
2022/11/17 03:04:04;;;;;;;;;3.00;2.33;;;;;13.83;62.18;98288.88;5076687;28;44990;-78
2022/11/17 03:07:07;;;;;;;;;1.00;1.00;;;;;13.82;62.14;98283.56;4995006;28;44879;-76
2022/11/17 03:10:08;;;;;;;;;1.33;1.00;;;;;13.88;61.93;98306.69;4993102;28;45983;-77
2022/11/17 03:13:19;;;;;;;;;1.00;1.00;;;;;13.87;61.93;98324.56;5070761;28;45104;-72
2022/11/17 03:19:31;;;;;;;;;4.33;0.00;;;;;13.74;64.94;98345.50;4993840;28;45530;-75
2022/11/17 03:22:08;;;;;;;;;1.00;0.00;;;;;13.70;66.19;98353.66;5002832;28;45294;-68
2022/11/17 03:25:01;;;;;;;;;0.33;0.33;;;;;13.61;66.48;98362.81;5068856;28;44702;-80
2022/11/17 03:27:47;;;;;;;;;1.67;0.00;;;;;13.57;66.55;98364.69;5074053;28;44945;-82
2022/11/17 03:30:23;;;;;;;;;2.33;0.00;;;;;13.53;66.96;98376.41;5054527;28;45271;-80
2022/11/17 03:33:01;;;;;;;;;2.33;1.00;;;;;13.50;67.99;98399.75;5074919;28;45711;-77
2022/11/17 03:35:35;;;;;;;;;0.33;0.33;;;;;13.38;68.49;98407.16;5067845;28;45252;-80
2022/11/17 03:38:08;;;;;;;;;1.67;1.67;;;;;13.25;69.85;98409.19;5068090;28;44917;-76
2022/11/17 03:40:51;;;;;;;;;0.33;0.33;;;;;13.22;71.21;98397.66;5071298;28;45157;-74
2022/11/17 03:43:23;;;;;;;;;1.00;0.00;;;;;13.18;71.27;98404.91;5071547;28;45768;-80
2022/11/17 03:46:22;;;;;;;;;0.00;0.00;;;;;13.00;71.36;98387.41;5073843;28;44852;-74
2022/11/17 03:49:09;;;;;;;;;1.00;0.00;;;;;13.14;70.37;98416.59;5035848;28;45226;-78
2022/11/17 03:51:49;;;;;;;;;0.00;0.00;;;;;12.95;70.25;98392.00;5073890;28;44945;-78
2022/11/17 03:54:24;;;;;;;;;0.00;0.00;;;;;13.05;70.82;98428.41;5066751;28;46817;-75
2022/11/17 03:57:19;;;;;;;;;0.00;0.00;;;;;13.07;71.12;98441.78;5073498;28;45450;-74
2022/11/17 04:00:03;;;;;;;;;1.67;0.00;;;;;13.05;71.77;98435.53;5074428;28;46629;-79
2022/11/17 04:02:43;;;;;;;;;3.33;2.00;;;;;13.03;72.39;98449.00;5069016;28;45115;-81
2022/11/17 04:05:24;;;;;;;;;0.00;0.00;;;;;13.03;71.24;98456.13;5070486;28;45868;-77
2022/11/17 04:07:56;;;;;;;;;1.67;0.00;;;;;13.00;71.77;98448.16;5074587;28;45127;-77
2022/11/17 04:16:19;;;;;;;;;0.00;0.00;;;;;12.94;70.98;98465.25;5070058;28;45294;-78
2022/11/17 04:18:48;;;;;;;;;2.00;0.00;;;;;12.98;70.36;98479.47;5074981;28;45014;-67
2022/11/17 04:21:17;;;;;;;;;0.00;0.00;;;;;12.88;69.65;98458.22;5086791;28;45076;-69
2022/11/17 04:23:45;;;;;;;;;1.00;1.00;;;;;13.00;70.58;98473.19;5060976;28;45393;-69
2022/11/17 04:29:21;;;;;;;;;0.67;0.00;;;;;12.96;69.49;98463.44;5076982;28;44823;-73
2022/11/17 04:31:55;;;;;;;;;0.00;0.00;;;;;12.84;68.13;98456.53;5050288;28;44896;-70
2022/11/17 04:34:37;;;;;;;;;0.00;0.00;;;;;12.98;68.17;98479.47;5074234;28;44887;-71
2022/11/17 04:37:16;;;;;;;;;0.00;0.00;;;;;13.02;68.25;98498.16;5064583;28;45910;-70
2022/11/17 04:39:54;;;;;;;;;2.33;1.00;;;;;12.35;67.87;98388.69;5074151;28;45272;-70
2022/11/17 04:42:40;;;;;;;;;0.00;0.00;;;;;12.98;68.17;98512.50;5077048;28;45306;-69
2022/11/17 04:45:36;;;;;;;;;0.00;0.00;;;;;12.94;68.76;98515.31;5079489;28;45571;-81
2022/11/17 04:48:28;;;;;;;;;1.00;0.00;;;;;12.93;69.21;98519.75;5062657;28;46072;-74
2022/11/17 04:51:11;;;;;;;;;0.00;0.00;;;;;12.91;69.57;98522.47;5056463;28;45139;-74
2022/11/17 04:54:07;;;;;;;;;0.00;0.00;;;;;12.90;69.20;98525.19;5047655;28;45091;-78
2022/11/17 04:56:51;;;;;;;;;0.00;0.00;;;;;12.86;70.10;98527.03;5077045;28;45033;-80
2022/11/17 04:59:28;;;;;;;;;0.33;0.00;;;;;12.84;70.15;98531.56;5058906;28;45705;-82
2022/11/17 05:02:12;;;;;;;;;0.00;0.00;;;;;12.80;70.17;98531.63;5071782;28;45575;-81
2022/11/17 05:05:02;;;;;;;;;2.00;0.00;;;;;12.90;69.83;98549.28;5056476;28;45161;-76
2022/11/17 05:07:40;;;;;;;;;0.00;0.00;;;;;12.86;69.28;98547.59;5053391;28;45063;-75
2022/11/17 05:10:06;;;;;;;;;0.00;0.00;;;;;12.85;69.85;98564.59;5072901;28;45626;-73
2022/11/17 05:18:10;;;;;;;;;0.67;0.00;;;;;12.82;70.16;98572.66;5069128;28;45242;-71
2022/11/17 05:20:49;;;;;;;;;;;;;;;;;;;;;
2022/11/17 05:26:17;;;;;;;;;0.00;0.00;;;;;12.80;69.54;98570.06;5074529;28;45206;-67
2022/11/17 05:28:50;;;;;;;;;1.33;1.00;;;;;12.80;68.65;98590.59;5075619;28;45285;-71
2022/11/17 05:31:25;;;;;;;;;0.00;0.00;;;;;12.50;69.06;98545.53;5068139;28;45112;-68
2022/11/17 05:33:57;;;;;;;;;0.00;0.00;;;;;12.64;69.16;98566.75;5069419;28;45664;-74
2022/11/17 05:36:42;;;;;;;;;0.00;0.00;;;;;12.54;69.38;98574.03;5070536;28;45181;-69
2022/11/17 05:39:16;;;;;;;;;2.33;0.00;;;;;12.64;70.41;98588.19;5071761;28;45173;-75
2022/11/17 05:41:45;;;;;;;;;0.00;0.00;;;;;12.64;69.69;98587.31;5078642;27;45575;-68
2022/11/17 05:44:11;;;;;;;;;2.00;0.00;;;;;12.65;69.73;98600.63;5065330;28;45105;-73
2022/11/17 05:47:25;;;;;;;;;2.00;0.00;;;;;12.64;68.86;98596.22;5070944;28;45145;-76
2022/11/17 05:50:00;;;;;;;;;0.00;0.00;;;;;12.65;69.61;98599.75;5043874;28;45280;-68
2022/11/17 05:52:55;;;;;;;;;1.00;1.00;;;;;12.41;68.72;98563.56;5055549;28;46243;-74
2022/11/17 05:55:26;;;;;;;;;0.00;0.00;;;;;12.67;68.62;98616.69;5072451;28;45180;-67
2022/11/17 05:58:37;;;;;;;;;1.00;1.00;;;;;12.65;68.91;98608.69;5071261;28;45292;-76
2022/11/17 06:01:17;;;;;;;;;0.00;0.00;;;;;12.65;69.30;98623.88;5070360;28;44891;-70
2022/11/17 06:04:11;;;;;;;;;0.00;0.00;;;;;12.57;69.59;98612.41;5069648;28;45180;-73
2022/11/17 06:06:54;;;;;;;;;;;;;;;;;;;;;
2022/11/17 06:09:44;;;;;;;;;2.00;1.00;;;;;12.58;70.24;98615.06;5064822;28;67903;-76
2022/11/17 06:12:36;;;;;;;;;5.33;2.00;;;;;12.64;69.75;98627.47;5043842;28;44895;-75
2022/11/17 06:15:03;;;;;;;;;0.33;0.33;;;;;12.63;69.00;98623.91;5065335;28;45476;-70
2022/11/17 06:17:43;;;;;;;;;2.33;0.67;;;;;11.96;68.56;98506.25;5070777;28;45342;-77
2022/11/17 06:20:24;;;;;;;;;5.00;1.00;;;;;12.64;68.65;98617.66;5072278;28;44998;-73
2022/11/17 06:23:07;;;;;;;;;2.00;0.00;;;;;12.75;68.29;98640.69;5072704;28;45245;-74
2022/11/17 06:25:45;;;;;;;;;4.33;1.33;;;;;12.58;67.22;98614.19;5072425;28;45136;-73
2022/11/17 06:28:48;;;;;;;;;0.67;0.67;;;;;12.72;66.32;98634.47;5053270;28;45168;-73
2022/11/17 06:31:52;;;;;;;;;2.33;1.00;;;;;12.73;66.14;98633.53;5075954;28;45076;-77
2022/11/17 06:34:33;;;;;;;;;1.67;0.67;;;;;12.73;66.79;98622.81;5057364;28;45464;-71
2022/11/17 06:37:01;;;;;;;;;2.00;0.00;;;;;12.63;64.92;98615.88;5074777;28;45159;-76
2022/11/17 06:39:46;;;;;;;;;1.00;1.00;;;;;12.65;65.42;98635.47;5077545;28;45186;-70
2022/11/17 06:43:02;;;;;;;;;0.00;0.00;;;;;12.67;65.01;98633.66;5077044;28;45176;-72
2022/11/17 06:45:13;;;;;;;;;1.00;1.00;;;;;12.53;66.02;98616.94;5076027;28;45290;-69
2022/11/17 06:47:57;;;;;;;;;0.00;0.00;;;;;12.63;65.20;98639.97;5076744;28;45408;-77
2022/11/17 06:50:37;;;;;;;;;0.67;0.33;;;;;12.41;64.28;98609.09;5056326;28;44941;-77
2022/11/17 06:53:33;;;;;;;;;1.00;1.00;;;;;12.32;65.54;98584.22;5076359;28;45215;-77
2022/11/17 06:56:09;;;;;;;;;2.33;0.00;;;;;12.65;64.99;98639.94;5069754;28;45263;-71
2022/11/17 06:59:02;;;;;;;;;2.00;1.00;;;;;12.60;65.28;98642.69;5078400;28;45570;-76
2022/11/17 07:01:33;;;;;;;;;1.00;0.00;;;;;12.54;66.27;98635.66;5074437;28;45271;-66
2022/11/17 07:04:32;;;;;;;;;4.33;2.00;;;;;12.58;66.36;98657.03;5073035;28;44894;-77
2022/11/17 07:07:30;;;;;;;;;4.67;3.00;;;;;12.63;66.62;98658.72;5073716;28;46230;-73
2022/11/17 07:13:24;;;;;;;;;4.33;2.67;;;;;12.68;66.80;98654.19;5011723;28;45291;-75
2022/11/17 07:16:08;;;;;;;;;5.00;5.00;;;;;12.71;66.44;98664.84;5054243;28;45203;-73
2022/11/17 07:18:52;;;;;;;;;2.00;2.00;;;;;12.72;66.49;98668.44;5050502;28;45403;-71
2022/11/17 07:21:42;;;;;;;;;4.00;4.00;;;;;12.67;66.16;98667.59;5049902;28;45558;-71
2022/11/17 07:24:50;;;;;;;;;6.00;5.00;;;;;12.52;66.96;98637.47;5043605;28;45162;-68
2022/11/17 07:27:22;;;;;;;;;4.67;3.00;;;;;12.65;67.35;98677.47;5033601;28;45306;-68
2022/11/17 07:30:20;;;;;;;;;9.33;4.00;;;;;12.67;66.64;98676.53;5052577;28;45021;-69
2022/11/17 07:33:13;;;;;;;;;7.67;3.00;;;;;12.43;67.18;98629.56;5062654;22;45559;-71
2022/11/17 07:36:31;;;;;;;;;51.50;41.00;;;;;12.71;66.42;98683.59;5049833;28;45145;-69
2022/11/17 07:39:09;;;;;;;;;4.33;2.67;;;;;12.73;65.88;98673.75;5047625;28;45121;-68
2022/11/17 07:41:45;;;;;;;;;6.67;2.00;;;;;12.77;66.03;98679.97;5051247;28;45085;-67
2022/11/17 07:44:56;;;;;;;;;4.33;3.00;;;;;12.81;65.85;98686.16;5051704;28;45648;-72
2022/11/17 07:47:49;;;;;;;;;;;;;;;;;;;;;
2022/11/17 07:50:35;;;;;;;;;4.00;2.00;;;;;12.91;64.97;98698.50;5048932;28;69808;-68
2022/11/17 07:53:37;;;;;;;;;2.67;2.00;;;;;12.94;65.36;98710.97;5053729;28;44871;-68
2022/11/17 07:56:27;;;;;;;;;8.00;4.00;;;;;12.99;65.44;98709.97;5051136;28;45591;-66
2022/11/17 07:59:01;;;;;;;;;1.67;1.00;;;;;12.98;65.45;98704.63;5038321;28;45533;-72
2022/11/17 08:02:01;;;;;;;;;3.00;2.00;;;;;13.05;65.45;98717.91;5052229;28;45168;-73
2022/11/17 08:04:41;;;;;;;;;4.33;1.33;;;;;13.09;65.22;98716.94;5046616;28;45098;-69
2022/11/17 08:07:12;;;;;;;;;7.00;3.00;;;;;13.13;65.94;98714.22;5052454;28;45554;-68
2022/11/17 08:09:49;;;;;;;;;3.33;3.33;;;;;13.06;65.81;98702.72;5034285;28;45308;-67
2022/11/17 08:12:58;;;;;;;;;3.33;2.00;;;;;13.13;65.76;98719.56;5051789;28;45200;-72
2022/11/17 08:15:47;;;;;;;;;3.00;1.00;;;;;13.13;65.85;98719.56;5050702;28;45214;-69
2022/11/17 08:18:28;;;;;;;;;2.33;1.00;;;;;13.09;66.24;98722.31;5050022;28;45685;-70
2022/11/17 08:21:16;;;;;;;;;2.00;1.00;;;;;13.08;67.30;98733.97;5027804;28;46367;-68
2022/11/17 08:23:59;;;;;;;;;1.00;1.00;;;;;13.06;68.27;98733.06;5050751;28;45539;-67
2022/11/17 08:26:30;;;;;;;;;6.33;2.33;;;;;13.03;67.77;98722.44;5035599;28;45241;-68
2022/11/17 08:29:07;;;;;;;;;3.00;2.00;;;;;12.98;68.41;98710.88;5048736;28;45833;-66
2022/11/17 08:31:59;;;;;;;;;2.00;1.00;;;;;13.04;68.76;98712.59;5053975;28;45045;-68
2022/11/17 08:34:36;;;;;;;;;1.00;1.00;;;;;13.08;68.55;98725.91;5050642;28;45327;-70
2022/11/17 08:37:13;;;;;;;;;1.00;1.00;;;;;13.15;68.47;98731.16;5051422;28;45771;-68
2022/11/17 08:40:28;;;;;;;;;6.67;1.33;;;;;13.18;68.71;98728.44;5039352;28;45494;-71
2022/11/17 08:43:24;;;;;;;;;12.00;9.00;;;;;13.26;67.90;98732.78;5031613;28;45434;-70
2022/11/17 08:46:16;;;;;;;;;8.00;5.00;;;;;13.25;67.30;98727.44;5012542;28;45490;-68
2022/11/17 08:48:59;;;;;;;;;2.33;1.67;;;;;13.18;66.98;98713.25;5028913;28;45423;-67
2022/11/17 08:51:48;;;;;;;;;3.33;1.33;;;;;13.18;66.96;98706.97;5033114;28;45737;-71
2022/11/17 08:54:40;;;;;;;;;3.00;1.33;;;;;13.36;66.96;98738.00;5032993;28;45451;-68
2022/11/17 09:00:54;;;;;;;;;2.00;2.00;;;;;13.44;66.28;98736.94;5017031;28;45756;-68
2022/11/17 09:03:35;;;;;;;;;1.00;1.00;;;;;13.48;65.92;98727.06;5032301;28;46515;-72
2022/11/17 09:12:30;;;;;;;;;3.67;2.00;;;;;13.55;66.11;98728.72;5032480;28;45642;-70
2022/11/17 09:19:07;;;;;;;;;11.33;2.00;;;;;13.60;66.12;98750.09;4942188;28;45744;-70
2022/11/17 09:21:50;;;;;;;;;3.67;2.67;;;;;13.61;65.83;98750.06;4969544;28;45012;-72
2022/11/17 09:24:25;;;;;;;;;3.00;3.00;;;;;13.61;66.33;98739.34;4938174;28;45465;-70
2022/11/17 09:27:17;;;;;;;;;5.67;4.67;;;;;13.71;66.07;98748.09;4952083;28;45868;-68
2022/11/17 09:30:21;;;;;;;;;4.00;2.33;;;;;13.72;65.76;98741.81;5026156;28;45849;-68
2022/11/17 09:33:04;;;;;;;;;8.67;3.00;;;;;13.61;65.69;98722.31;5025277;28;45759;-67
2022/11/17 09:35:47;;;;;;;;;4.00;2.67;;;;;13.74;66.15;98765.94;5030856;28;45476;-74
2022/11/17 09:41:55;;;;;;;;;5.00;3.67;;;;;13.66;65.56;98758.03;5010195;28;45779;-70
2022/11/17 09:44:44;;;;;;;;;7.33;3.00;;;;;13.67;65.61;98764.28;5011231;28;45737;-71
2022/11/17 09:47:36;;;;;;;;;5.67;5.33;;;;;13.66;65.97;98758.03;5029750;28;45627;-67
2022/11/17 09:50:07;;;;;;;;;6.00;5.00;;;;;13.67;65.19;98769.66;5032617;28;46182;-66
2022/11/17 09:53:03;;;;;;;;;6.00;3.33;;;;;13.61;65.94;98773.31;5030734;28;45522;-66
2022/11/17 09:55:39;;;;;;;;;5.67;3.67;;;;;13.51;66.12;98772.59;5028458;28;45549;-70
2022/11/17 09:58:10;;;;;;;;;5.00;5.00;;;;;13.58;66.44;98778.75;5011542;28;45478;-69
2022/11/17 10:00:39;;;;;;;;;5.00;5.00;;;;;13.62;67.38;98780.47;5034692;28;46183;-68
2022/11/17 10:03:18;;;;;;;;;10.00;7.33;;;;;13.69;67.25;98770.50;5033293;28;45432;-71
2022/11/17 10:05:44;;;;;;;;;5.67;3.67;;;;;13.69;67.16;98759.75;5034222;28;45464;-67
2022/11/17 10:08:15;;;;;;;;;7.33;4.00;;;;;13.97;66.75;98776.22;5016842;28;45542;-65
2022/11/17 10:10:50;;;;;;;;;4.00;4.00;;;;;14.10;66.58;98776.88;5031750;28;47881;-66
2022/11/17 10:13:34;;;;;;;;;9.33;5.67;;;;;14.16;66.74;98783.03;5033281;28;45679;-69
2022/11/17 10:16:04;;;;;;;;;4.00;3.00;;;;;14.21;65.90;98777.56;5029740;28;46810;-69
2022/11/17 10:18:35;;;;;;;;;8.33;5.33;;;;;14.33;65.93;98790.72;5035183;28;45446;-71
2022/11/17 10:21:02;;;;;;;;;6.67;3.00;;;;;14.41;65.77;98798.63;5035032;28;46593;-71
2022/11/17 10:23:35;;;;;;;;;5.67;3.67;;;;;14.46;65.33;98783.31;5034509;28;45488;-69
2022/11/17 10:26:06;;;;;;;;;6.33;3.67;;;;;14.46;65.60;98787.81;5036173;28;45497;-68
2022/11/17 10:28:32;;;;;;;;;6.00;3.00;;;;;14.52;64.95;98782.31;5018418;28;45268;-69
2022/11/17 10:31:13;;;;;;;;;7.00;4.33;;;;;14.52;64.67;98772.44;5036366;28;46261;-71
2022/11/17 10:33:42;;;;;;;;;4.00;4.00;;;;;14.64;64.63;98778.50;5013872;28;45662;-70
2022/11/17 10:36:24;;;;;;;;;6.33;4.00;;;;;14.68;63.59;98780.19;5016205;28;45382;-70
2022/11/17 10:38:53;;;;;;;;;6.00;2.00;;;;;14.76;63.02;98764.78;5010346;28;45773;-70
2022/11/17 10:41:37;;;;;;;;;5.33;4.00;;;;;14.67;62.67;98759.63;5015451;28;47072;-72
2022/11/17 10:44:17;;;;;;;;;7.00;4.00;;;;;14.86;63.40;98766.31;5015937;28;45790;-72
2022/11/17 10:46:58;;;;;;;;;4.33;3.00;;;;;14.93;62.90;98765.28;5013769;28;45504;-68
2022/11/17 10:49:31;;;;;;;;;6.67;4.00;;;;;14.91;61.88;98753.69;5015774;28;45320;-64
2022/11/17 10:52:14;;;;;;;;;4.67;2.00;;;;;14.76;61.75;98737.88;5015998;28;46021;-67
2022/11/17 10:54:40;;;;;;;;;3.33;2.00;;;;;14.89;61.04;98757.31;5013126;28;45378;-68
2022/11/17 10:57:25;;;;;;;;;4.00;3.00;;;;;14.93;61.86;98761.69;5015929;28;45453;-65
2022/11/17 10:59:57;;;;;;;;;3.67;3.67;;;;;14.99;61.43;98756.19;5016391;28;45485;-65
2022/11/17 11:02:33;;;;;;;;;2.33;2.33;;;;;14.99;61.06;98741.84;5015651;28;46174;-67
2022/11/17 11:05:10;;;;;;;;;3.00;3.00;;;;;14.95;60.53;98740.13;5015630;28;45670;-66
2022/11/17 11:07:37;;;;;;;;;2.67;1.00;;;;;15.00;60.75;98749.00;5011398;28;45571;-64
2022/11/17 11:10:15;;;;;;;;;6.00;1.00;;;;;14.93;60.60;98735.72;5015625;28;45550;-68
2022/11/17 11:13:03;;;;;;;;;2.00;2.00;;;;;14.97;60.35;98749.09;5010696;28;46721;-70
2022/11/17 11:15:34;;;;;;;;;5.33;2.00;;;;;14.97;60.54;98741.00;5013351;28;45446;-70
2022/11/17 11:18:00;;;;;;;;;5.33;3.67;;;;;14.89;60.20;98733.13;5015391;28;45515;-72
2022/11/17 11:20:49;;;;;;;;;5.00;3.00;;;;;15.02;59.96;98742.66;5016021;28;45766;-71
2022/11/17 11:23:24;;;;;;;;;5.00;3.00;;;;;15.08;59.47;98747.03;4975323;28;47146;-73
2022/11/17 11:26:32;;;;;;;;;3.67;3.67;;;;;15.08;59.33;98739.84;5014944;28;45331;-70
2022/11/17 11:29:06;;;;;;;;;6.67;4.00;;;;;15.05;59.30;98744.41;4974743;28;45362;-72
2022/11/17 11:32:10;;;;;;;;;8.00;7.00;;;;;14.98;58.97;98740.06;5013202;28;45570;-73
2022/11/17 11:35:06;;;;;;;;;4.33;1.67;;;;;14.90;58.14;98740.28;4999294;28;48186;-73
2022/11/17 11:37:42;;;;;;;;;4.00;1.00;;;;;14.91;57.89;98747.41;5006898;28;45500;-74
2022/11/17 11:40:21;;;;;;;;;1.67;1.67;;;;;14.78;58.01;98727.09;5012312;28;45455;-71
2022/11/17 11:43:04;;;;;;;;;1.00;1.00;;;;;14.93;57.65;98757.22;5017820;28;45474;-66
2022/11/17 11:45:48;;;;;;;;;5.00;3.33;;;;;14.95;57.91;98756.28;5016131;28;45549;-71
2022/11/17 11:48:19;;;;;;;;;1.00;1.00;;;;;14.96;57.11;98750.88;5015037;28;45400;-67
2022/11/17 11:51:08;;;;;;;;;3.00;3.00;;;;;15.03;57.11;98748.91;5014170;28;45572;-68
2022/11/17 11:53:43;;;;;;;;;4.33;3.00;;;;;15.05;56.79;98749.78;5015263;28;45608;-67
2022/11/17 11:56:33;;;;;;;;;3.00;2.67;;;;;15.04;57.08;98730.06;5010316;28;45445;-67
2022/11/17 11:59:22;;;;;;;;;3.00;3.00;;;;;15.07;56.78;98734.47;4997814;28;45418;-69
2022/11/17 12:02:11;;;;;;;;;5.67;2.67;;;;;15.19;56.58;98746.75;5015107;28;45577;-67
2022/11/17 12:05:09;;;;;;;;;10.67;7.00;;;;;15.25;56.06;98741.22;5011950;28;45381;-69
2022/11/17 12:07:40;;;;;;;;;0.67;0.67;;;;;15.29;55.62;98748.28;5013122;28;46878;-66
2022/11/17 12:10:10;;;;;;;;;2.33;1.00;;;;;15.21;55.11;98748.50;5008800;28;45461;-66
2022/11/17 12:12:38;;;;;;;;;6.00;5.00;;;;;15.23;55.23;98754.72;5008477;28;45464;-68
2022/11/17 12:15:18;;;;;;;;;2.67;1.67;;;;;15.15;54.70;98745.94;5015234;28;45461;-67
2022/11/17 12:18:03;;;;;;;;;2.00;2.00;;;;;15.20;54.72;98756.59;5014316;28;45574;-65
2022/11/17 12:20:39;;;;;;;;;3.67;1.00;;;;;15.17;54.54;98740.53;5018777;28;45382;-67
2022/11/17 12:23:32;;;;;;;;;2.00;2.00;;;;;15.17;54.24;98760.22;5013738;28;45595;-66
2022/11/17 12:25:59;;;;;;;;;1.67;1.33;;;;;15.20;54.58;98757.47;5015296;28;45336;-73
2022/11/17 12:28:34;;;;;;;;;3.33;2.00;;;;;15.26;54.59;98759.09;5014714;28;48004;-68
2022/11/17 12:31:11;;;;;;;;;1.67;1.67;;;;;15.28;53.61;98758.16;5015116;28;45402;-66
2022/11/17 12:34:00;;;;;;;;;1.00;0.00;;;;;15.32;53.95;98763.47;5022577;28;45390;-66
2022/11/17 12:36:30;;;;;;;;;4.33;3.00;;;;;15.34;54.58;98754.41;5030198;28;45770;-66
2022/11/17 12:38:59;;;;;;;;;2.00;2.00;;;;;15.36;54.25;98755.28;5034582;28;46756;-67
2022/11/17 12:41:47;;;;;;;;;6.33;3.00;;;;;15.39;53.82;98768.66;5016244;28;45409;-66
2022/11/17 12:44:30;;;;;;;;;4.00;2.00;;;;;15.33;52.87;98752.69;5034326;28;45624;-68
2022/11/17 12:47:09;;;;;;;;;1.00;1.00;;;;;15.22;53.37;98755.63;5033335;28;46228;-66
2022/11/17 12:49:44;;;;;;;;;4.33;4.33;;;;;15.13;53.36;98742.41;5030726;28;46056;-67
2022/11/17 12:52:20;;;;;;;;;2.00;1.33;;;;;15.15;53.20;98756.69;5015546;28;45677;-68
2022/11/17 12:55:27;;;;;;;;;5.33;4.33;;;;;15.17;53.75;98757.53;5034151;28;45433;-67
2022/11/17 12:58:16;;;;;;;;;4.33;4.00;;;;;15.21;53.88;98764.63;5017547;28;45442;-67
2022/11/17 13:01:09;;;;;;;;;6.00;3.00;;;;;15.16;53.42;98753.06;5032125;28;46274;-67
2022/11/17 13:04:00;;;;;;;;;5.33;1.00;;;;;15.09;52.62;98760.41;5033874;28;45470;-66
2022/11/17 13:06:25;;;;;;;;;3.00;1.33;;;;;15.02;52.83;98756.09;5016162;28;45367;-66
2022/11/17 13:08:56;;;;;;;;;5.33;4.33;;;;;15.03;52.69;98751.59;5034131;28;45853;-67
2022/11/17 13:11:22;;;;;;;;;1.00;1.00;;;;;15.06;52.41;98754.22;5034143;28;46399;-68
2022/11/17 13:13:48;;;;;;;;;2.33;2.33;;;;;15.09;52.64;98760.41;5034391;28;45667;-68
2022/11/17 13:16:19;;;;;;;;;2.00;2.00;;;;;15.05;52.59;98756.03;5034333;28;45647;-71
2022/11/17 13:18:46;;;;;;;;;3.00;2.67;;;;;15.14;52.56;98760.31;5034097;28;45395;-70
2022/11/17 13:21:23;;;;;;;;;3.67;1.00;;;;;15.21;52.89;98766.41;5030921;28;46144;-69
2022/11/17 13:23:49;;;;;;;;;2.00;2.00;;;;;15.24;52.64;98752.88;5033399;28;45546;-69
2022/11/17 13:26:19;;;;;;;;;2.00;0.00;;;;;15.36;52.29;98760.69;5033615;28;45458;-70
2022/11/17 13:28:46;;;;;;;;;2.67;1.00;;;;;15.44;52.95;98765.84;5034123;28;45438;-67
2022/11/17 13:31:24;;;;;;;;;1.00;1.00;;;;;15.50;51.27;98757.63;5033216;28;45575;-67
2022/11/17 13:34:06;;;;;;;;;0.00;0.00;;;;;15.56;50.80;98773.63;5032958;28;45468;-72
2022/11/17 13:36:32;;;;;;;;;4.00;3.00;;;;;15.62;51.20;98768.09;5027761;28;45507;-67
2022/11/17 13:38:59;;;;;;;;;4.33;3.33;;;;;15.66;51.40;98775.13;5033749;28;45427;-68